sensor_id;sensor_type;location;lat;lon;timestamp;pressure;altitude;pressure_sealevel;temperature;humidity
73341;BME280;61578;52.002;5.468;2022-09-27T00:00:15;99644.72;;;9.67;91.81
73341;BME280;61578;52.002;5.468;2022-09-27T00:00:46;99654.31;;;9.68;91.56
73341;BME280;61578;52.002;5.468;2022-09-27T00:01:16;99655.06;;;9.70;91.55
73341;BME280;61578;52.002;5.468;2022-09-27T00:01:47;99658.66;;;9.69;92.01
73341;BME280;61578;52.002;5.468;2022-09-27T00:02:18;99661.44;;;9.67;92.04
73341;BME280;61578;52.002;5.468;2022-09-27T00:02:48;99664.09;;;9.67;92.38
73341;BME280;61578;52.002;5.468;2022-09-27T00:03:19;99647.84;;;9.60;92.32
73341;BME280;61578;52.002;5.468;2022-09-27T00:03:53;99660.72;;;9.65;91.73
73341;BME280;61578;52.002;5.468;2022-09-27T00:04:25;99659.16;;;9.63;91.95
73341;BME280;61578;52.002;5.468;2022-09-27T00:04:56;99667.22;;;9.61;91.84
73341;BME280;61578;52.002;5.468;2022-09-27T00:05:28;99667.22;;;9.61;92.46
73341;BME280;61578;52.002;5.468;2022-09-27T00:06:04;99646.13;;;9.48;91.80
73341;BME280;61578;52.002;5.468;2022-09-27T00:06:37;99648.09;;;9.46;91.74
73341;BME280;61578;52.002;5.468;2022-09-27T00:07:08;99637.13;;;9.40;92.01
73341;BME280;61578;52.002;5.468;2022-09-27T00:07:40;99664.13;;;9.56;91.97
73341;BME280;61578;52.002;5.468;2022-09-27T00:08:11;99662.44;;;9.55;92.59
73341;BME280;61578;52.002;5.468;2022-09-27T00:08:41;99664.22;;;9.54;92.05
73341;BME280;61578;52.002;5.468;2022-09-27T00:09:12;99660.00;;;9.52;91.78
73341;BME280;61578;52.002;5.468;2022-09-27T00:09:43;99661.69;;;9.53;92.19
73341;BME280;61578;52.002;5.468;2022-09-27T00:10:14;99666.03;;;9.54;92.74
73341;BME280;61578;52.002;5.468;2022-09-27T00:10:45;99669.53;;;9.54;92.51
73341;BME280;61578;52.002;5.468;2022-09-27T00:12:04;99674.09;;;9.52;92.38
73341;BME280;61578;52.002;5.468;2022-09-27T00:12:35;99670.00;;;9.48;92.38
73341;BME280;61578;52.002;5.468;2022-09-27T00:13:07;99666.38;;;9.49;92.99
73341;BME280;61578;52.002;5.468;2022-09-27T00:13:37;99625.66;;;9.28;92.73
73341;BME280;61578;52.002;5.468;2022-09-27T00:14:12;99666.03;;;9.54;92.50
73341;BME280;61578;52.002;5.468;2022-09-27T00:14:45;99686.28;;;9.55;92.49
73341;BME280;61578;52.002;5.468;2022-09-27T00:15:15;99678.31;;;9.55;92.42
73341;BME280;61578;52.002;5.468;2022-09-27T00:15:46;99649.63;;;9.38;92.53
73341;BME280;61578;52.002;5.468;2022-09-27T00:16:17;99674.72;;;9.56;92.67
73341;BME280;61578;52.002;5.468;2022-09-27T00:16:47;99678.06;;;9.58;93.04
73341;BME280;61578;52.002;5.468;2022-09-27T00:17:18;99676.13;;;9.60;93.13
73341;BME280;61578;52.002;5.468;2022-09-27T00:17:49;99659.88;;;9.53;92.70
73341;BME280;61578;52.002;5.468;2022-09-27T00:18:21;99628.94;;;9.32;92.53
73341;BME280;61578;52.002;5.468;2022-09-27T00:18:52;99663.63;;;9.51;92.31
73341;BME280;61578;52.002;5.468;2022-09-27T00:19:27;99660.00;;;9.52;92.59
73341;BME280;61578;52.002;5.468;2022-09-27T00:19:58;99681.44;;;9.60;92.50
73341;BME280;61578;52.002;5.468;2022-09-27T00:20:29;99676.97;;;9.60;92.59
73341;BME280;61578;52.002;5.468;2022-09-27T00:21:09;99672.53;;;9.61;92.29
73341;BME280;61578;52.002;5.468;2022-09-27T00:21:42;99684.09;;;9.60;92.44
73341;BME280;61578;52.002;5.468;2022-09-27T00:22:13;99676.03;;;9.62;92.77
73341;BME280;61578;52.002;5.468;2022-09-27T00:22:44;99673.38;;;9.62;92.75
73341;BME280;61578;52.002;5.468;2022-09-27T00:23:15;99664.34;;;9.53;92.68
73341;BME280;61578;52.002;5.468;2022-09-27T00:23:46;99679.41;;;9.64;92.81
73341;BME280;61578;52.002;5.468;2022-09-27T00:24:20;99676.88;;;9.62;92.88
73341;BME280;61578;52.002;5.468;2022-09-27T00:24:52;99673.38;;;9.62;92.76
73341;BME280;61578;52.002;5.468;2022-09-27T00:25:22;99662.44;;;9.55;92.47
73341;BME280;61578;52.002;5.468;2022-09-27T00:25:57;99682.78;;;9.66;92.88
73341;BME280;61578;52.002;5.468;2022-09-27T00:26:28;99682.63;;;9.67;92.87
73341;BME280;61578;52.002;5.468;2022-09-27T00:26:59;99682.53;;;9.69;92.94
73341;BME280;61578;52.002;5.468;2022-09-27T00:27:30;99677.09;;;9.70;92.84
73341;BME280;61578;52.002;5.468;2022-09-27T00:28:01;99676.25;;;9.70;92.53
73341;BME280;61578;52.002;5.468;2022-09-27T00:28:33;99678.19;;;9.68;92.68
73341;BME280;61578;52.002;5.468;2022-09-27T00:29:04;99680.72;;;9.69;92.75
73341;BME280;61578;52.002;5.468;2022-09-27T00:29:34;99693.72;;;9.72;92.46
73341;BME280;61578;52.002;5.468;2022-09-27T00:30:07;99693.72;;;9.72;92.77
73341;BME280;61578;52.002;5.468;2022-09-27T00:30:42;99687.69;;;9.70;92.57
73341;BME280;61578;52.002;5.468;2022-09-27T00:31:55;99689.16;;;9.74;92.97
73341;BME280;61578;52.002;5.468;2022-09-27T00:32:26;99682.41;;;9.70;92.74
73341;BME280;61578;52.002;5.468;2022-09-27T00:32:56;99690.84;;;9.75;92.85
73341;BME280;61578;52.002;5.468;2022-09-27T00:33:27;99686.41;;;9.76;93.01
73341;BME280;61578;52.002;5.468;2022-09-27T00:34:00;99683.84;;;9.74;92.88
73341;BME280;61578;52.002;5.468;2022-09-27T00:34:32;99678.28;;;9.77;93.09
73341;BME280;61578;52.002;5.468;2022-09-27T00:35:03;99685.16;;;9.80;92.94
73341;BME280;61578;52.002;5.468;2022-09-27T00:35:34;99682.41;;;9.81;93.18
73341;BME280;61578;52.002;5.468;2022-09-27T00:36:05;99672.28;;;9.75;93.13
73341;BME280;61578;52.002;5.468;2022-09-27T00:36:36;99688.19;;;9.86;92.89
73341;BME280;61578;52.002;5.468;2022-09-27T00:37:08;99679.41;;;9.86;93.01
73341;BME280;61578;52.002;5.468;2022-09-27T00:37:40;99674.44;;;9.81;92.50
73341;BME280;61578;52.002;5.468;2022-09-27T00:38:12;99665.41;;;9.84;92.81
73341;BME280;61578;52.002;5.468;2022-09-27T00:38:43;99679.25;;;9.87;92.64
73341;BME280;61578;52.002;5.468;2022-09-27T00:39:15;99677.44;;;9.88;92.80
73341;BME280;61578;52.002;5.468;2022-09-27T00:39:45;99677.44;;;9.88;92.70
73341;BME280;61578;52.002;5.468;2022-09-27T00:40:16;99676.47;;;9.89;92.80
73341;BME280;61578;52.002;5.468;2022-09-27T00:40:47;99679.13;;;9.89;92.30
73341;BME280;61578;52.002;5.468;2022-09-27T00:41:23;99677.31;;;9.89;92.55
73341;BME280;61578;52.002;5.468;2022-09-27T00:41:57;99666.25;;;9.84;92.78
73341;BME280;61578;52.002;5.468;2022-09-27T00:42:27;99667.22;;;9.83;92.37
73341;BME280;61578;52.002;5.468;2022-09-27T00:42:58;99671.19;;;9.89;92.28
73341;BME280;61578;52.002;5.468;2022-09-27T00:43:49;99666.72;;;9.89;92.29
73341;BME280;61578;52.002;5.468;2022-09-27T00:45:02;99664.34;;;9.86;92.40
73341;BME280;61578;52.002;5.468;2022-09-27T00:45:42;99673.13;;;9.87;92.57
73341;BME280;61578;52.002;5.468;2022-09-27T00:46:41;99656.63;;;9.83;92.46
73341;BME280;61578;52.002;5.468;2022-09-27T00:47:29;99666.72;;;9.89;92.30
73341;BME280;61578;52.002;5.468;2022-09-27T00:48:05;99665.03;;;9.88;92.50
73341;BME280;61578;52.002;5.468;2022-09-27T00:48:36;99661.91;;;9.83;92.26
73341;BME280;61578;52.002;5.468;2022-09-27T00:49:18;99669.50;;;9.88;92.29
73341;BME280;61578;52.002;5.468;2022-09-27T00:50:11;99669.63;;;9.86;92.42
73341;BME280;61578;52.002;5.468;2022-09-27T00:50:58;99651.94;;;9.76;92.20
73341;BME280;61578;52.002;5.468;2022-09-27T00:51:36;99637.13;;;9.62;92.40
73341;BME280;61578;52.002;5.468;2022-09-27T00:52:37;99666.25;;;9.84;92.35
73341;BME280;61578;52.002;5.468;2022-09-27T00:53:21;99665.41;;;9.84;92.57
73341;BME280;61578;52.002;5.468;2022-09-27T00:54:00;99669.16;;;9.81;92.08
73341;BME280;61578;52.002;5.468;2022-09-27T00:54:35;99657.09;;;9.77;92.07
73341;BME280;61578;52.002;5.468;2022-09-27T00:55:24;99672.75;;;9.80;92.33
73341;BME280;61578;52.002;5.468;2022-09-27T00:56:08;99668.81;;;9.75;92.13
73341;BME280;61578;52.002;5.468;2022-09-27T00:56:43;99671.06;;;9.79;92.46
73341;BME280;61578;52.002;5.468;2022-09-27T00:57:18;99678.06;;;9.80;92.02
73341;BME280;61578;52.002;5.468;2022-09-27T00:57:50;99667.56;;;9.79;92.15
73341;BME280;61578;52.002;5.468;2022-09-27T00:58:28;99673.00;;;9.77;92.38
73341;BME280;61578;52.002;5.468;2022-09-27T00:59:10;99670.72;;;9.73;92.38
73341;BME280;61578;52.002;5.468;2022-09-27T00:59:53;99638.56;;;9.55;92.51
73341;BME280;61578;52.002;5.468;2022-09-27T01:00:30;99665.66;;;9.70;92.38
73341;BME280;61578;52.002;5.468;2022-09-27T01:01:06;99656.50;;;9.63;92.44
73341;BME280;61578;52.002;5.468;2022-09-27T01:01:43;99675.19;;;9.72;92.18
73341;BME280;61578;52.002;5.468;2022-09-27T01:02:14;99661.69;;;9.64;92.58
73341;BME280;61578;52.002;5.468;2022-09-27T01:02:49;99671.78;;;9.70;92.35
73341;BME280;61578;52.002;5.468;2022-09-27T01:03:35;99684.22;;;9.70;92.36
73341;BME280;61578;52.002;5.468;2022-09-27T01:04:20;99673.13;;;9.65;92.62
73341;BME280;61578;52.002;5.468;2022-09-27T01:04:54;99674.09;;;9.64;92.33
73341;BME280;61578;52.002;5.468;2022-09-27T01:05:27;99680.97;;;9.66;92.50
73341;BME280;61578;52.002;5.468;2022-09-27T01:06:00;99670.84;;;9.60;92.01
73341;BME280;61578;52.002;5.468;2022-09-27T01:06:32;99670.84;;;9.60;92.11
73341;BME280;61578;52.002;5.468;2022-09-27T01:07:03;99679.53;;;9.62;92.06
73341;BME280;61578;52.002;5.468;2022-09-27T01:07:34;99684.59;;;9.65;92.52
73341;BME280;61578;52.002;5.468;2022-09-27T01:08:05;99684.69;;;9.64;92.15
73341;BME280;61578;52.002;5.468;2022-09-27T01:08:36;99685.53;;;9.64;92.47
73341;BME280;61578;52.002;5.468;2022-09-27T01:09:09;99679.88;;;9.57;92.60
73341;BME280;61578;52.002;5.468;2022-09-27T01:09:41;99684.09;;;9.60;92.57
73341;BME280;61578;52.002;5.468;2022-09-27T01:10:13;99675.56;;;9.56;92.45
73341;BME280;61578;52.002;5.468;2022-09-27T01:11:00;99686.50;;;9.63;92.39
73341;BME280;61578;52.002;5.468;2022-09-27T01:12:23;99691.81;;;9.63;92.78
73341;BME280;61578;52.002;5.468;2022-09-27T01:13:21;99682.66;;;9.56;92.57
73341;BME280;61578;52.002;5.468;2022-09-27T01:16:22;99699.41;;;9.56;92.48
73341;BME280;61578;52.002;5.468;2022-09-27T01:19:58;99684.09;;;9.49;92.59
73341;BME280;61578;52.002;5.468;2022-09-27T01:21:25;99699.25;;;9.47;92.25
73341;BME280;61578;52.002;5.468;2022-09-27T01:22:14;99674.91;;;9.31;92.52
73341;BME280;61578;52.002;5.468;2022-09-27T01:25:17;99701.44;;;9.42;92.06
73341;BME280;61578;52.002;5.468;2022-09-27T01:28:03;99666.09;;;9.19;92.20
73341;BME280;61578;52.002;5.468;2022-09-27T01:29:35;99699.13;;;9.37;92.75
73341;BME280;61578;52.002;5.468;2022-09-27T01:31:01;99696.47;;;9.37;92.26
73341;BME280;61578;52.002;5.468;2022-09-27T01:31:49;99697.56;;;9.35;92.31
73341;BME280;61578;52.002;5.468;2022-09-27T01:35:12;99702.97;;;9.33;92.62
73341;BME280;61578;52.002;5.468;2022-09-27T01:38:39;99703.59;;;9.26;92.87
73341;BME280;61578;52.002;5.468;2022-09-27T01:40:55;99710.31;;;9.30;92.77
73341;BME280;61578;52.002;5.468;2022-09-27T01:41:38;99712.13;;;9.29;92.65
73341;BME280;61578;52.002;5.468;2022-09-27T01:42:25;99707.56;;;9.31;92.56
73341;BME280;61578;52.002;5.468;2022-09-27T01:43:08;99708.63;;;9.29;92.41
73341;BME280;61578;52.002;5.468;2022-09-27T01:43:54;99699.34;;;9.23;92.88
73341;BME280;61578;52.002;5.468;2022-09-27T01:44:38;99710.31;;;9.30;92.69
73341;BME280;61578;52.002;5.468;2022-09-27T01:45:29;99710.09;;;9.33;93.13
73341;BME280;61578;52.002;5.468;2022-09-27T01:46:22;99708.50;;;9.30;93.48
73341;BME280;61578;52.002;5.468;2022-09-27T01:47:02;99704.56;;;9.36;93.51
73341;BME280;61578;52.002;5.468;2022-09-27T01:47:57;99714.66;;;9.42;93.46
73341;BME280;61578;52.002;5.468;2022-09-27T01:48:50;99707.19;;;9.47;93.36
73341;BME280;61578;52.002;5.468;2022-09-27T01:49:31;99705.75;;;9.43;93.13
73341;BME280;61578;52.002;5.468;2022-09-27T01:50:20;99684.06;;;9.38;92.86
73341;BME280;61578;52.002;5.468;2022-09-27T01:51:12;99695.91;;;9.45;93.07
73341;BME280;61578;52.002;5.468;2022-09-27T01:51:58;99708.44;;;9.54;92.59
73341;BME280;61578;52.002;5.468;2022-09-27T01:52:39;99710.97;;;9.55;92.33
73341;BME280;61578;52.002;5.468;2022-09-27T01:53:34;99705.78;;;9.54;92.33
73341;BME280;61578;52.002;5.468;2022-09-27T01:54:15;99697.59;;;9.46;92.29
73341;BME280;61578;52.002;5.468;2022-09-27T01:54:56;99700.59;;;9.52;92.52
73341;BME280;61578;52.002;5.468;2022-09-27T01:55:34;99702.50;;;9.50;92.43
73341;BME280;61578;52.002;5.468;2022-09-27T01:56:18;99708.78;;;9.49;92.50
73341;BME280;61578;52.002;5.468;2022-09-27T01:56:57;99693.25;;;9.45;92.54
73341;BME280;61578;52.002;5.468;2022-09-27T01:57:37;99702.16;;;9.44;92.71
73341;BME280;61578;52.002;5.468;2022-09-27T01:59:49;99685.88;;;9.37;92.89
73341;BME280;61578;52.002;5.468;2022-09-27T02:00:33;99697.22;;;9.50;92.99
73341;BME280;61578;52.002;5.468;2022-09-27T02:01:08;99701.66;;;9.50;92.64
73341;BME280;61578;52.002;5.468;2022-09-27T02:01:47;99683.84;;;9.41;92.30
73341;BME280;61578;52.002;5.468;2022-09-27T02:02:24;99696.38;;;9.50;92.63
73341;BME280;61578;52.002;5.468;2022-09-27T02:03:12;99708.66;;;9.51;93.08
73341;BME280;61578;52.002;5.468;2022-09-27T02:03:49;99700.72;;;9.51;92.89
73341;BME280;61578;52.002;5.468;2022-09-27T02:04:27;99694.44;;;9.41;92.51
73341;BME280;61578;52.002;5.468;2022-09-27T02:05:04;99683.72;;;9.31;92.07
73341;BME280;61578;52.002;5.468;2022-09-27T02:05:49;99699.84;;;9.39;91.78
73341;BME280;61578;52.002;5.468;2022-09-27T02:06:35;99706.59;;;9.43;92.25
73341;BME280;61578;52.002;5.468;2022-09-27T02:07:16;99701.66;;;9.39;91.80
73341;BME280;61578;52.002;5.468;2022-09-27T02:07:59;99682.41;;;9.26;92.30
73341;BME280;61578;52.002;5.468;2022-09-27T02:08:45;99704.41;;;9.37;92.18
73341;BME280;61578;52.002;5.468;2022-09-27T02:09:30;99702.88;;;9.35;92.29
73341;BME280;61578;52.002;5.468;2022-09-27T02:10:20;99704.41;;;9.37;92.22
73341;BME280;61578;52.002;5.468;2022-09-27T02:10:58;99699.59;;;9.31;92.07
73341;BME280;61578;52.002;5.468;2022-09-27T02:11:41;99692.72;;;9.29;92.40
73341;BME280;61578;52.002;5.468;2022-09-27T02:12:23;99687.44;;;9.29;92.25
73341;BME280;61578;52.002;5.468;2022-09-27T02:13:10;99705.75;;;9.32;91.82
73341;BME280;61578;52.002;5.468;2022-09-27T02:14:31;99687.91;;;9.22;92.16
73341;BME280;61578;52.002;5.468;2022-09-27T02:15:12;99701.63;;;9.28;91.93
73341;BME280;61578;52.002;5.468;2022-09-27T02:18:49;99694.50;;;9.17;92.52
73341;BME280;61578;52.002;5.468;2022-09-27T02:20:36;99675.25;;;9.04;92.00
73341;BME280;61578;52.002;5.468;2022-09-27T02:21:10;99681.84;;;9.09;91.55
73341;BME280;61578;52.002;5.468;2022-09-27T02:21:58;99693.28;;;9.10;91.61
73341;BME280;61578;52.002;5.468;2022-09-27T02:22:43;99682.34;;;9.03;92.10
73341;BME280;61578;52.002;5.468;2022-09-27T02:23:48;99695.59;;;9.03;91.89
73341;BME280;61578;52.002;5.468;2022-09-27T02:24:40;99683.28;;;8.91;91.52
73341;BME280;61578;52.002;5.468;2022-09-27T02:25:27;99698.56;;;8.99;91.61
73341;BME280;61578;52.002;5.468;2022-09-27T02:26:18;99690.25;;;8.92;92.07
73341;BME280;61578;52.002;5.468;2022-09-27T02:27:24;99683.84;;;8.83;91.93
73341;BME280;61578;52.002;5.468;2022-09-27T02:27:58;99701.06;;;8.89;91.57
73341;BME280;61578;52.002;5.468;2022-09-27T02:28:49;99691.69;;;8.85;92.31
73341;BME280;61578;52.002;5.468;2022-09-27T02:29:40;99693.13;;;8.89;92.52
73341;BME280;61578;52.002;5.468;2022-09-27T02:30:16;99707.31;;;8.88;92.70
73341;BME280;61578;52.002;5.468;2022-09-27T02:30:47;99701.16;;;8.88;92.69
73341;BME280;61578;52.002;5.468;2022-09-27T02:31:18;99693.22;;;8.88;92.45
73341;BME280;61578;52.002;5.468;2022-09-27T02:31:49;99702.13;;;8.86;92.46
73341;BME280;61578;52.002;5.468;2022-09-27T02:32:21;99678.88;;;8.79;92.04
73341;BME280;61578;52.002;5.468;2022-09-27T02:32:52;99690.00;;;8.84;92.56
73341;BME280;61578;52.002;5.468;2022-09-27T02:33:31;99690.94;;;8.83;92.44
73341;BME280;61578;52.002;5.468;2022-09-27T02:34:22;99684.69;;;8.84;92.38
73341;BME280;61578;52.002;5.468;2022-09-27T02:35:00;99692.38;;;8.87;92.55
73341;BME280;61578;52.002;5.468;2022-09-27T02:35:35;99685.66;;;8.83;92.40
73341;BME280;61578;52.002;5.468;2022-09-27T02:36:05;99685.66;;;8.83;92.71
73341;BME280;61578;52.002;5.468;2022-09-27T02:36:36;99692.50;;;8.85;92.69
73341;BME280;61578;52.002;5.468;2022-09-27T02:37:07;99696.13;;;8.84;92.47
73341;BME280;61578;52.002;5.468;2022-09-27T02:37:38;99680.09;;;8.75;92.39
73341;BME280;61578;52.002;5.468;2022-09-27T02:38:10;99674.28;;;8.70;92.09
73341;BME280;61578;52.002;5.468;2022-09-27T02:38:42;99663.09;;;8.66;91.92
73341;BME280;61578;52.002;5.468;2022-09-27T02:39:15;99695.50;;;8.81;92.20
73341;BME280;61578;52.002;5.468;2022-09-27T02:39:47;99688.41;;;8.81;92.53
73341;BME280;61578;52.002;5.468;2022-09-27T02:40:18;99686.09;;;8.77;92.67
73341;BME280;61578;52.002;5.468;2022-09-27T02:40:49;99689.38;;;8.80;92.27
73341;BME280;61578;52.002;5.468;2022-09-27T02:41:21;99673.44;;;8.69;92.56
73341;BME280;61578;52.002;5.468;2022-09-27T02:41:52;99647.31;;;8.54;92.23
73341;BME280;61578;52.002;5.468;2022-09-27T02:42:27;99685.13;;;8.78;92.59
73341;BME280;61578;52.002;5.468;2022-09-27T02:42:59;99693.09;;;8.78;92.00
73341;BME280;61578;52.002;5.468;2022-09-27T02:43:35;99690.69;;;8.75;92.06
73341;BME280;61578;52.002;5.468;2022-09-27T02:44:11;99691.63;;;8.74;91.96
73341;BME280;61578;52.002;5.468;2022-09-27T02:44:44;99695.25;;;8.73;92.45
73341;BME280;61578;52.002;5.468;2022-09-27T02:45:17;99689.00;;;8.74;92.59
73341;BME280;61578;52.002;5.468;2022-09-27T02:47:43;99699.69;;;8.72;92.47
73341;BME280;61578;52.002;5.468;2022-09-27T02:51:03;99692.19;;;8.66;92.41
73341;BME280;61578;52.002;5.468;2022-09-27T02:52:57;99697.47;;;8.66;92.88
73341;BME280;61578;52.002;5.468;2022-09-27T02:55:29;99701.22;;;8.64;92.25
73341;BME280;61578;52.002;5.468;2022-09-27T02:57:06;99693.28;;;8.64;92.23
73341;BME280;61578;52.002;5.468;2022-09-27T02:59:06;99703.25;;;8.60;92.05
73341;BME280;61578;52.002;5.468;2022-09-27T03:00:47;99651.72;;;8.29;92.09
73341;BME280;61578;52.002;5.468;2022-09-27T03:02:01;99713.31;;;8.55;92.74
73341;BME280;61578;52.002;5.468;2022-09-27T03:03:58;99698.06;;;8.59;92.79
73341;BME280;61578;52.002;5.468;2022-09-27T03:05:00;99695.41;;;8.59;92.48
73341;BME280;61578;52.002;5.468;2022-09-27T03:05:52;99697.00;;;8.61;93.22
73341;BME280;61578;52.002;5.468;2022-09-27T03:06:31;99695.94;;;8.64;92.77
73341;BME280;61578;52.002;5.468;2022-09-27T03:07:05;99684.72;;;8.60;92.83
73341;BME280;61578;52.002;5.468;2022-09-27T03:07:37;99683.38;;;8.55;92.55
73341;BME280;61578;52.002;5.468;2022-09-27T03:08:10;99695.94;;;8.64;92.79
73341;BME280;61578;52.002;5.468;2022-09-27T03:08:43;99686.53;;;8.60;92.71
73341;BME280;61578;52.002;5.468;2022-09-27T03:09:18;99695.09;;;8.63;92.39
73341;BME280;61578;52.002;5.468;2022-09-27T03:09:52;99700.38;;;8.63;92.43
73341;BME280;61578;52.002;5.468;2022-09-27T03:10:27;99691.69;;;8.61;92.43
73341;BME280;61578;52.002;5.468;2022-09-27T03:10:58;99694.56;;;8.58;92.49
73341;BME280;61578;52.002;5.468;2022-09-27T03:11:29;99678.31;;;8.52;92.13
73341;BME280;61578;52.002;5.468;2022-09-27T03:12:00;99686.75;;;8.57;92.32
73341;BME280;61578;52.002;5.468;2022-09-27T03:12:32;99699.84;;;8.58;92.29
73341;BME280;61578;52.002;5.468;2022-09-27T03:13:03;99671.06;;;8.42;92.24
73341;BME280;61578;52.002;5.468;2022-09-27T03:13:34;99671.16;;;8.41;92.18
73341;BME280;61578;52.002;5.468;2022-09-27T03:14:08;99691.31;;;8.55;92.44
73341;BME280;61578;52.002;5.468;2022-09-27T03:14:39;99690.69;;;8.51;92.23
73341;BME280;61578;52.002;5.468;2022-09-27T03:15:09;99669.38;;;8.41;92.46
73341;BME280;61578;52.002;5.468;2022-09-27T03:15:40;99693.22;;;8.53;92.12
73341;BME280;61578;52.002;5.468;2022-09-27T03:16:11;99690.69;;;8.51;92.24
73341;BME280;61578;52.002;5.468;2022-09-27T03:16:41;99696.19;;;8.48;92.23
73341;BME280;61578;52.002;5.468;2022-09-27T03:17:12;99695.13;;;8.51;92.15
73341;BME280;61578;52.002;5.468;2022-09-27T03:17:43;99698.75;;;8.49;92.29
73341;BME280;61578;52.002;5.468;2022-09-27T03:18:13;99677.53;;;8.38;92.42
73341;BME280;61578;52.002;5.468;2022-09-27T03:18:44;99675.09;;;8.35;92.27
73341;BME280;61578;52.002;5.468;2022-09-27T03:19:15;99677.75;;;8.35;92.31
73341;BME280;61578;52.002;5.468;2022-09-27T03:19:45;99685.03;;;8.44;92.21
73341;BME280;61578;52.002;5.468;2022-09-27T03:20:16;99700.75;;;8.46;92.44
73341;BME280;61578;52.002;5.468;2022-09-27T03:20:47;99697.16;;;8.47;92.19
73341;BME280;61578;52.002;5.468;2022-09-27T03:21:17;99690.06;;;8.47;92.34
73341;BME280;61578;52.002;5.468;2022-09-27T03:21:49;99701.72;;;8.45;92.29
73341;BME280;61578;52.002;5.468;2022-09-27T03:22:19;99700.75;;;8.46;92.27
73341;BME280;61578;52.002;5.468;2022-09-27T03:22:50;99681.47;;;8.33;92.35
73341;BME280;61578;52.002;5.468;2022-09-27T03:23:21;99700.91;;;8.44;92.50
73341;BME280;61578;52.002;5.468;2022-09-27T03:23:52;99678.81;;;8.33;92.26
73341;BME280;61578;52.002;5.468;2022-09-27T03:24:22;99683.16;;;8.34;92.28
73341;BME280;61578;52.002;5.468;2022-09-27T03:24:53;99692.44;;;8.39;92.50
73341;BME280;61578;52.002;5.468;2022-09-27T03:25:24;99691.25;;;8.43;92.80
73341;BME280;61578;52.002;5.468;2022-09-27T03:25:55;99695.72;;;8.43;92.54
73341;BME280;61578;52.002;5.468;2022-09-27T03:26:25;99682.31;;;8.33;92.50
73341;BME280;61578;52.002;5.468;2022-09-27T03:26:56;99705.34;;;8.44;92.62
73341;BME280;61578;52.002;5.468;2022-09-27T03:27:27;99704.50;;;8.43;92.44
73341;BME280;61578;52.002;5.468;2022-09-27T03:27:58;99705.34;;;8.44;92.32
73341;BME280;61578;52.002;5.468;2022-09-27T03:28:28;99695.81;;;8.41;92.46
73341;BME280;61578;52.002;5.468;2022-09-27T03:28:59;99688.22;;;8.37;92.54
73341;BME280;61578;52.002;5.468;2022-09-27T03:29:30;99696.56;;;8.43;92.38
73341;BME280;61578;52.002;5.468;2022-09-27T03:30:01;99690.41;;;8.43;92.41
73341;BME280;61578;52.002;5.468;2022-09-27T03:30:32;99700.03;;;8.44;92.83
73341;BME280;61578;52.002;5.468;2022-09-27T03:31:03;99692.97;;;8.44;92.46
73341;BME280;61578;52.002;5.468;2022-09-27T03:31:33;99698.25;;;8.44;92.76
73341;BME280;61578;52.002;5.468;2022-09-27T03:32:04;99677.53;;;8.38;92.65
73341;BME280;61578;52.002;5.468;2022-09-27T03:32:35;99687.66;;;8.44;92.63
73341;BME280;61578;52.002;5.468;2022-09-27T03:33:05;99697.25;;;8.45;92.67
73341;BME280;61578;52.002;5.468;2022-09-27T03:33:38;99679.72;;;8.44;92.99
73341;BME280;61578;52.002;5.468;2022-09-27T03:34:09;99684.56;;;8.51;93.43
73341;BME280;61578;52.002;5.468;2022-09-27T03:34:39;99678.88;;;8.44;93.15
73341;BME280;61578;52.002;5.468;2022-09-27T03:35:11;99669.25;;;8.43;92.95
73341;BME280;61578;52.002;5.468;2022-09-27T03:35:42;99691.31;;;8.55;92.65
73341;BME280;61578;52.002;5.468;2022-09-27T03:36:13;99659.13;;;8.37;92.91
73341;BME280;61578;52.002;5.468;2022-09-27T03:36:43;99694.78;;;8.55;92.89
73341;BME280;61578;52.002;5.468;2022-09-27T03:37:14;99702.50;;;8.58;93.09
73341;BME280;61578;52.002;5.468;2022-09-27T03:37:45;99679.50;;;8.47;93.07
73341;BME280;61578;52.002;5.468;2022-09-27T03:38:16;99679.59;;;8.46;93.19
73341;BME280;61578;52.002;5.468;2022-09-27T03:38:47;99695.31;;;8.60;93.14
73341;BME280;61578;52.002;5.468;2022-09-27T03:39:18;99699.53;;;8.63;93.15
73341;BME280;61578;52.002;5.468;2022-09-27T03:39:48;99701.22;;;8.64;93.41
73341;BME280;61578;52.002;5.468;2022-09-27T03:40:19;99701.44;;;8.61;93.32
73341;BME280;61578;52.002;5.468;2022-09-27T03:40:50;99704.09;;;8.61;92.99
73341;BME280;61578;52.002;5.468;2022-09-27T03:41:21;99708.22;;;8.65;92.73
73341;BME280;61578;52.002;5.468;2022-09-27T03:41:52;99706.25;;;8.67;92.98
73341;BME280;61578;52.002;5.468;2022-09-27T03:42:22;99706.16;;;8.68;93.18
73341;BME280;61578;52.002;5.468;2022-09-27T03:42:53;99711.22;;;8.71;93.37
73341;BME280;61578;52.002;5.468;2022-09-27T03:43:24;99708.47;;;8.73;93.66
73341;BME280;61578;52.002;5.468;2022-09-27T03:43:55;99704.72;;;8.75;93.27
73341;BME280;61578;52.002;5.468;2022-09-27T03:44:27;99697.78;;;8.74;93.09
73341;BME280;61578;52.002;5.468;2022-09-27T03:44:57;99674.75;;;8.64;93.13
73341;BME280;61578;52.002;5.468;2022-09-27T03:45:28;99687.91;;;8.76;93.16
73341;BME280;61578;52.002;5.468;2022-09-27T03:45:59;99700.78;;;8.81;93.27
73341;BME280;61578;52.002;5.468;2022-09-27T03:46:29;99696.25;;;8.83;93.46
73341;BME280;61578;52.002;5.468;2022-09-27T03:47:00;99692.63;;;8.84;93.20
73341;BME280;61578;52.002;5.468;2022-09-27T03:47:31;99685.03;;;8.79;93.05
73341;BME280;61578;52.002;5.468;2022-09-27T03:48:01;99695.75;;;8.89;93.16
73341;BME280;61578;52.002;5.468;2022-09-27T03:48:33;99693.97;;;8.90;93.26
73341;BME280;61578;52.002;5.468;2022-09-27T03:49:04;99681.91;;;8.85;93.32
73341;BME280;61578;52.002;5.468;2022-09-27T03:49:34;99689.41;;;8.92;93.09
73341;BME280;61578;52.002;5.468;2022-09-27T03:50:10;99696.97;;;8.96;92.84
73341;BME280;61578;52.002;5.468;2022-09-27T03:50:41;99688.34;;;8.94;93.10
73341;BME280;61578;52.002;5.468;2022-09-27T03:51:12;99690.50;;;9.00;92.87
73341;BME280;61578;52.002;5.468;2022-09-27T03:51:42;99687.97;;;8.99;92.84
73341;BME280;61578;52.002;5.468;2022-09-27T03:52:13;99696.44;;;9.04;93.32
73341;BME280;61578;52.002;5.468;2022-09-27T03:52:44;99694.47;;;9.06;93.45
73341;BME280;61578;52.002;5.468;2022-09-27T03:53:15;99697.28;;;9.04;93.28